Time,TemperatureF,DewpointF,PressureIn,WindDirection,WindDirectionDegrees,WindSpeedMPH,WindSpeedGustMPH,Humidity,HourlyPrecipIn,Conditions,Clouds,dailyrainin,SoftwareType,DateUTC
2013-10-07 00:04:00,75.9,74.0,29.88,SE,124,0.0,1.0,93,0.00,,,0.00,weatherlink.com 1.10,2013-10-07 04:04:00,
2013-10-07 00:19:00,75.7,74.0,29.88,SE,124,0.0,0.0,93,0.00,,,0.00,weatherlink.com 1.10,2013-10-07 04:19:00,
2013-10-07 00:34:00,75.6,74.0,29.88,SE,124,0.0,0.0,93,0.00,,,0.00,weatherlink.com 1.10,2013-10-07 04:34:00,
2013-10-07 00:49:00,75.5,73.0,29.87,SE,124,0.0,0.0,93,0.00,,,0.00,weatherlink.com 1.10,2013-10-07 04:49:00,
2013-10-07 01:04:00,75.0,73.0,29.87,SE,124,0.0,0.0,94,0.00,,,0.00,weatherlink.com 1.10,2013-10-07 05:04:00,
2013-10-07 01:19:00,74.5,73.0,29.87,SE,124,0.0,0.0,94,0.00,,,0.00,weatherlink.com 1.10,2013-10-07 05:19:00,
2013-10-07 01:34:00,75.0,74.0,29.87,SE,124,0.0,0.0,95,0.00,,,0.00,weatherlink.com 1.10,2013-10-07 05:34:00,
2013-10-07 01:49:00,75.0,74.0,29.87,SE,124,0.0,0.0,95,0.00,,,0.00,weatherlink.com 1.10,2013-10-07 05:49:00,
2013-10-07 02:04:00,74.8,73.0,29.87,SE,124,0.0,0.0,95,0.00,,,0.00,weatherlink.com 1.10,2013-10-07 06:04:00,
2013-10-07 02:19:00,74.7,73.0,29.86,SE,124,0.0,0.0,95,0.00,,,0.00,weatherlink.com 1.10,2013-10-07 06:19:00,
2013-10-07 02:34:00,74.9,73.0,29.86,SE,124,0.0,0.0,95,0.00,,,0.00,weatherlink.com 1.10,2013-10-07 06:34:00,
2013-10-07 02:49:00,74.8,73.0,29.85,SSE,148,0.0,0.0,95,0.00,,,0.00,weatherlink.com 1.10,2013-10-07 06:49:00,
2013-10-07 03:04:00,74.7,73.0,29.85,SE,136,0.0,0.0,95,0.00,,,0.00,weatherlink.com 1.10,2013-10-07 07:04:00,
2013-10-07 03:19:00,74.6,73.0,29.85,SE,135,0.0,0.0,95,0.00,,,0.00,weatherlink.com 1.10,2013-10-07 07:19:00,
2013-10-07 03:34:00,74.4,73.0,29.85,SE,136,0.0,0.0,95,0.00,,,0.00,weatherlink.com 1.10,2013-10-07 07:34:00,
2013-10-07 03:49:00,74.6,73.0,29.84,SE,145,0.0,0.0,95,0.00,,,0.00,weatherlink.com 1.10,2013-10-07 07:49:00,
2013-10-07 04:04:00,74.6,73.0,29.84,SSE,152,0.0,0.0,95,0.00,,,0.00,weatherlink.com 1.10,2013-10-07 08:04:00,
2013-10-07 04:19:00,74.8,73.0,29.84,SSE,150,0.0,0.0,95,0.00,,,0.00,weatherlink.com 1.10,2013-10-07 08:19:00,
2013-10-07 04:34:00,74.9,73.0,29.83,SSE,152,0.0,0.0,95,0.00,,,0.00,weatherlink.com 1.10,2013-10-07 08:34:00,
2013-10-07 04:49:00,75.4,74.0,29.84,SSE,151,0.0,0.0,95,0.00,,,0.00,weatherlink.com 1.10,2013-10-07 08:49:00,
2013-10-07 05:04:00,75.5,74.0,29.83,SE,130,0.0,0.0,95,0.00,,,0.00,weatherlink.com 1.10,2013-10-07 09:04:00,
2013-10-07 05:19:00,75.5,74.0,29.84,SE,134,0.0,0.0,95,0.00,,,0.00,weatherlink.com 1.10,2013-10-07 09:19:00,
2013-10-07 05:35:00,75.6,74.0,29.84,SE,127,0.0,0.0,95,0.00,,,0.00,weatherlink.com 1.10,2013-10-07 09:35:00,
2013-10-07 05:50:00,75.5,74.0,29.84,SE,129,0.0,0.0,95,0.00,,,0.00,weatherlink.com 1.10,2013-10-07 09:50:00,
2013-10-07 06:05:00,75.5,74.0,29.83,SE,129,0.0,0.0,95,0.00,,,0.00,weatherlink.com 1.10,2013-10-07 10:05:00,
2013-10-07 06:20:00,75.8,74.0,29.83,SSE,155,0.0,0.0,95,0.00,,,0.00,weatherlink.com 1.10,2013-10-07 10:20:00,
2013-10-07 06:35:00,76.0,74.0,29.84,SSE,155,0.0,0.0,94,0.00,,,0.00,weatherlink.com 1.10,2013-10-07 10:35:00,
2013-10-07 06:50:00,76.4,75.0,29.84,SSE,155,0.0,0.0,94,0.00,,,0.00,weatherlink.com 1.10,2013-10-07 10:50:00,
2013-10-07 07:05:00,76.4,75.0,29.84,SSE,155,0.0,0.0,94,0.00,,,0.00,weatherlink.com 1.10,2013-10-07 11:05:00,
2013-10-07 07:20:00,76.7,75.0,29.84,SSE,157,0.0,0.0,93,0.00,,,0.00,weatherlink.com 1.10,2013-10-07 11:20:00,
2013-10-07 07:35:00,77.1,75.0,29.84,SSE,165,0.0,0.0,92,0.00,,,0.00,weatherlink.com 1.10,2013-10-07 11:35:00,
2013-10-07 07:50:00,77.3,75.0,29.84,ESE,117,0.0,0.0,92,0.00,,,0.00,weatherlink.com 1.10,2013-10-07 11:50:00,
2013-10-07 08:05:00,77.5,75.0,29.85,East,99,0.0,0.0,92,0.00,,,0.00,weatherlink.com 1.10,2013-10-07 12:05:00,
2013-10-07 08:20:00,78.8,76.0,29.85,ESE,105,0.0,1.0,91,0.00,,,0.00,weatherlink.com 1.10,2013-10-07 12:20:00,
2013-10-07 08:35:00,80.1,77.0,29.85,SSE,148,0.0,0.0,89,0.00,,,0.00,weatherlink.com 1.10,2013-10-07 12:35:00,
2013-10-07 08:50:00,82.1,77.0,29.85,WSW,248,3.0,7.0,85,0.00,,,0.00,weatherlink.com 1.10,2013-10-07 12:50:00,
2013-10-07 09:05:00,82.8,77.0,29.86,WSW,252,1.0,7.0,83,0.00,,,0.00,weatherlink.com 1.10,2013-10-07 13:05:00,
2013-10-07 09:20:00,83.1,77.0,29.86,West,274,6.0,11.0,81,0.00,,,0.00,weatherlink.com 1.10,2013-10-07 13:20:00,
2013-10-07 09:35:00,83.0,77.0,29.87,SW,222,5.0,13.0,81,0.00,,,0.00,weatherlink.com 1.10,2013-10-07 13:35:00,
2013-10-07 09:51:00,83.1,76.0,29.87,SSW,208,4.0,8.0,80,0.00,,,0.00,weatherlink.com 1.10,2013-10-07 13:51:00,
2013-10-07 10:05:00,83.5,77.0,29.86,WNW,293,4.0,10.0,80,0.00,,,0.00,weatherlink.com 1.10,2013-10-07 14:05:00,
2013-10-07 10:20:00,84.3,78.0,29.86,SW,228,7.0,11.0,80,0.00,,,0.00,weatherlink.com 1.10,2013-10-07 14:20:00,
2013-10-07 10:35:00,85.3,77.0,29.86,SW,231,11.0,12.0,77,0.00,,,0.00,weatherlink.com 1.10,2013-10-07 14:35:00,
2013-10-07 10:50:00,85.7,77.0,29.86,SW,225,8.0,16.0,74,0.00,,,0.00,weatherlink.com 1.10,2013-10-07 14:50:00,
2013-10-07 11:06:00,85.1,78.0,29.86,SW,221,7.0,15.0,78,0.00,,,0.00,weatherlink.com 1.10,2013-10-07 15:06:00,
2013-10-07 11:21:00,85.0,77.0,29.86,WSW,248,9.0,14.0,77,0.00,,,0.00,weatherlink.com 1.10,2013-10-07 15:21:00,
2013-10-07 11:35:00,84.7,78.0,29.86,West,271,8.0,16.0,79,0.00,,,0.00,weatherlink.com 1.10,2013-10-07 15:35:00,
2013-10-07 11:50:00,86.1,78.0,29.85,SW,225,5.0,15.0,76,0.00,,,0.00,weatherlink.com 1.10,2013-10-07 15:50:00,
2013-10-07 12:05:00,84.9,77.0,29.85,SW,221,8.0,19.0,77,0.00,,,0.00,weatherlink.com 1.10,2013-10-07 16:05:00,
2013-10-07 12:20:00,84.8,77.0,29.84,West,270,8.0,16.0,78,0.00,,,0.00,weatherlink.com 1.10,2013-10-07 16:20:00,
2013-10-07 12:35:00,85.0,77.0,29.85,SSW,212,5.0,20.0,77,0.00,,,0.00,weatherlink.com 1.10,2013-10-07 16:35:00,
2013-10-07 12:50:00,83.7,77.0,29.84,WNW,287,3.0,16.0,79,0.00,,,0.00,weatherlink.com 1.10,2013-10-07 16:50:00,
2013-10-07 13:05:00,83.0,78.0,29.84,West,274,5.0,11.0,84,0.00,,,0.00,weatherlink.com 1.10,2013-10-07 17:05:00,
2013-10-07 13:20:00,83.6,78.0,29.84,SW,225,4.0,11.0,83,0.00,,,0.00,weatherlink.com 1.10,2013-10-07 17:20:00,
2013-10-07 13:35:00,84.5,78.0,29.83,West,274,5.0,11.0,81,0.00,,,0.00,weatherlink.com 1.10,2013-10-07 17:35:00,
2013-10-07 13:50:00,85.7,77.0,29.82,SW,233,13.0,20.0,76,0.00,,,0.00,weatherlink.com 1.10,2013-10-07 17:50:00,
2013-10-07 14:06:00,86.0,77.0,29.82,WSW,255,8.0,17.0,74,0.00,,,0.00,weatherlink.com 1.10,2013-10-07 18:06:00,
2013-10-07 14:21:00,83.5,75.0,29.82,West,269,7.0,21.0,76,0.00,,,0.00,weatherlink.com 1.10,2013-10-07 18:21:00,
2013-10-07 14:36:00,78.7,73.0,29.82,NW,315,0.0,11.0,83,0.00,,,0.00,weatherlink.com 1.10,2013-10-07 18:36:00,
2013-10-07 14:51:00,78.6,74.0,29.82,WSW,243,4.0,17.0,85,0.00,,,0.00,weatherlink.com 1.10,2013-10-07 18:51:00,
2013-10-07 15:06:00,78.4,74.0,29.81,West,264,3.0,12.0,86,0.00,,,0.00,weatherlink.com 1.10,2013-10-07 19:06:00,
2013-10-07 15:21:00,79.5,75.0,29.81,WSW,240,8.0,11.0,85,0.00,,,0.00,weatherlink.com 1.10,2013-10-07 19:21:00,
2013-10-07 15:36:00,81.0,75.0,29.81,West,277,3.0,8.0,83,0.00,,,0.00,weatherlink.com 1.10,2013-10-07 19:36:00,
2013-10-07 15:51:00,82.8,77.0,29.80,West,260,4.0,16.0,82,0.00,,,0.00,weatherlink.com 1.10,2013-10-07 19:51:00,
2013-10-07 16:06:00,84.8,78.0,29.79,SW,226,8.0,15.0,79,0.00,,,0.00,weatherlink.com 1.10,2013-10-07 20:06:00,
2013-10-07 16:21:00,85.2,78.0,29.79,WNW,293,5.0,16.0,78,0.00,,,0.00,weatherlink.com 1.10,2013-10-07 20:21:00,
2013-10-07 16:36:00,85.3,78.0,29.79,WSW,241,4.0,15.0,78,0.00,,,0.00,weatherlink.com 1.10,2013-10-07 20:36:00,
2013-10-07 16:51:00,85.6,78.0,29.79,SSW,211,4.0,15.0,78,0.00,,,0.00,weatherlink.com 1.10,2013-10-07 20:51:00,
2013-10-07 17:06:00,84.9,78.0,29.80,SSW,203,3.0,11.0,79,0.00,,,0.00,weatherlink.com 1.10,2013-10-07 21:06:00,
2013-10-07 17:21:00,83.6,77.0,29.80,WNW,284,4.0,13.0,81,0.00,,,0.00,weatherlink.com 1.10,2013-10-07 21:21:00,
2013-10-07 17:36:00,83.0,76.0,29.80,West,271,2.0,13.0,78,0.00,,,0.00,weatherlink.com 1.10,2013-10-07 21:36:00,
2013-10-07 17:51:00,84.4,78.0,29.80,SW,222,2.0,7.0,80,0.00,,,0.00,weatherlink.com 1.10,2013-10-07 21:51:00,
2013-10-07 18:06:00,84.3,78.0,29.80,SW,224,4.0,9.0,82,0.00,,,0.00,weatherlink.com 1.10,2013-10-07 22:06:00,
2013-10-07 18:21:00,83.6,78.0,29.80,WNW,284,3.0,8.0,82,0.00,,,0.00,weatherlink.com 1.10,2013-10-07 22:21:00,
2013-10-07 18:36:00,82.9,77.0,29.80,WSW,252,4.0,9.0,83,0.00,,,0.00,weatherlink.com 1.10,2013-10-07 22:36:00,
2013-10-07 18:51:00,82.3,77.0,29.80,WSW,250,1.0,5.0,83,0.00,,,0.00,weatherlink.com 1.10,2013-10-07 22:51:00,
2013-10-07 19:06:00,81.7,77.0,29.80,WNW,289,3.0,7.0,85,0.00,,,0.00,weatherlink.com 1.10,2013-10-07 23:06:00,
2013-10-07 19:21:00,81.5,77.0,29.81,West,280,0.0,6.0,87,0.00,,,0.00,weatherlink.com 1.10,2013-10-07 23:21:00,
2013-10-07 19:36:00,81.4,77.0,29.81,WSW,248,1.0,5.0,87,0.00,,,0.00,weatherlink.com 1.10,2013-10-07 23:36:00,
2013-10-07 19:51:00,80.6,74.0,29.81,West,271,1.0,7.0,80,0.00,,,0.00,weatherlink.com 1.10,2013-10-07 23:51:00,
2013-10-07 20:06:00,80.5,76.0,29.82,West,259,0.0,3.0,86,0.00,,,0.00,weatherlink.com 1.10,2013-10-08 00:06:00,
2013-10-07 20:21:00,80.6,77.0,29.83,WSW,250,1.0,3.0,88,0.00,,,0.00,weatherlink.com 1.10,2013-10-08 00:21:00,
2013-10-07 20:36:00,79.6,75.0,29.84,West,262,0.0,2.0,86,0.00,,,0.00,weatherlink.com 1.10,2013-10-08 00:36:00,
2013-10-07 20:51:00,78.8,75.0,29.85,WNW,284,0.0,2.0,87,0.00,,,0.00,weatherlink.com 1.10,2013-10-08 00:51:00,
2013-10-07 21:06:00,78.1,74.0,29.85,WSW,256,0.0,1.0,88,0.00,,,0.00,weatherlink.com 1.10,2013-10-08 01:06:00,
2013-10-07 21:21:00,77.6,74.0,29.86,West,260,0.0,1.0,89,0.00,,,0.00,weatherlink.com 1.10,2013-10-08 01:21:00,
2013-10-07 21:36:00,77.6,75.0,29.86,WSW,255,0.0,1.0,90,0.00,,,0.00,weatherlink.com 1.10,2013-10-08 01:36:00,
2013-10-07 21:51:00,78.6,75.0,29.86,WSW,243,1.0,2.0,89,0.00,,,0.00,weatherlink.com 1.10,2013-10-08 01:51:00,
2013-10-07 22:06:00,78.8,76.0,29.86,WSW,238,0.0,1.0,90,0.00,,,0.00,weatherlink.com 1.10,2013-10-08 02:06:00,
2013-10-07 22:21:00,78.9,76.0,29.86,WSW,254,0.0,3.0,90,0.00,,,0.00,weatherlink.com 1.10,2013-10-08 02:21:00,
2013-10-07 22:36:00,78.8,75.0,29.86,WSW,255,0.0,3.0,89,0.00,,,0.00,weatherlink.com 1.10,2013-10-08 02:36:00,
2013-10-07 22:51:00,78.8,75.0,29.86,WSW,257,0.0,2.0,89,0.00,,,0.00,weatherlink.com 1.10,2013-10-08 02:51:00,
2013-10-07 23:06:00,78.5,75.0,29.87,SW,231,0.0,3.0,89,0.00,,,0.00,weatherlink.com 1.10,2013-10-08 03:06:00,
2013-10-07 23:21:00,78.3,75.0,29.86,WNW,287,0.0,4.0,88,0.00,,,0.00,weatherlink.com 1.10,2013-10-08 03:21:00,
2013-10-07 23:36:00,78.5,74.0,29.86,WSW,250,0.0,3.0,87,0.00,,,0.00,weatherlink.com 1.10,2013-10-08 03:36:00,
2013-10-07 23:51:00,78.4,75.0,29.86,WNW,295,0.0,2.0,88,0.00,,,0.00,weatherlink.com 1.10,2013-10-08 03:51:00,